createdAt,value
2022-08-02T00:00:47.339Z,15.10
2022-08-02T00:03:16.115Z,9.35
2022-08-02T00:05:53.273Z,11.73
2022-08-02T00:08:22.772Z,15.18
2022-08-02T00:10:51.623Z,14.68
2022-08-02T00:13:20.203Z,9.00
2022-08-02T00:15:50.277Z,6.78
2022-08-02T00:18:18.911Z,12.52
2022-08-02T00:20:47.601Z,12.95
2022-08-02T00:23:16.235Z,13.23
2022-08-02T00:25:55.388Z,8.73
2022-08-02T00:28:27.275Z,14.20
2022-08-02T00:30:58.522Z,12.27
2022-08-02T00:34:05.317Z,8.75
2022-08-02T00:36:16.541Z,11.43
2022-08-02T00:38:46.438Z,11.93
2022-08-02T00:41:17.537Z,13.90
2022-08-02T00:43:46.519Z,11.75
2022-08-02T00:46:17.088Z,13.43
2022-08-02T00:48:46.147Z,13.88
2022-08-02T00:51:15.511Z,11.48
2022-08-02T00:53:44.481Z,10.33
2022-08-02T00:56:13.157Z,11.13
2022-08-02T00:58:41.546Z,19.88
2022-08-02T01:01:10.306Z,12.73
2022-08-02T01:03:40.434Z,12.75
2022-08-02T01:06:12.354Z,10.35
2022-08-02T01:08:41.377Z,17.27
2022-08-02T01:11:12.656Z,15.38
2022-08-02T01:13:41.083Z,10.45
2022-08-02T01:16:16.206Z,8.63
2022-08-02T01:18:49.627Z,11.80
2022-08-02T01:21:35.561Z,12.05
2022-08-02T01:24:20.750Z,9.85
2022-08-02T01:26:52.616Z,12.52
2022-08-02T01:29:26.309Z,9.70
2022-08-02T01:31:59.044Z,9.98
2022-08-02T01:34:33.355Z,10.98
2022-08-02T01:37:05.113Z,15.95
2022-08-02T01:39:35.884Z,12.65
2022-08-02T01:42:05.962Z,9.35
2022-08-02T01:44:38.312Z,12.13
2022-08-02T01:47:10.293Z,11.27
2022-08-02T01:49:41.443Z,12.85
2022-08-02T01:52:22.940Z,12.35
2022-08-02T01:54:55.814Z,11.77
2022-08-02T01:57:24.922Z,11.48
2022-08-02T01:59:57.590Z,12.70
2022-08-02T02:02:30.055Z,13.25
2022-08-02T02:05:03.354Z,13.40
2022-08-02T02:07:34.329Z,10.25
2022-08-02T02:10:04.559Z,14.52
2022-08-02T02:12:35.037Z,14.48
2022-08-02T02:15:06.037Z,8.27
2022-08-02T02:17:52.034Z,11.27
2022-08-02T02:20:24.200Z,13.68
2022-08-02T02:22:52.878Z,11.18
2022-08-02T02:25:35.989Z,9.18
2022-08-02T02:28:09.703Z,11.80
2022-08-02T02:30:41.484Z,10.95
2022-08-02T02:33:11.737Z,12.63
2022-08-02T02:38:13.302Z,11.93
2022-08-02T02:40:42.724Z,11.98
2022-08-02T02:43:12.477Z,12.93
2022-08-02T02:45:43.420Z,9.68
2022-08-02T02:48:13.011Z,10.93
2022-08-02T02:50:43.220Z,9.70
2022-08-02T02:53:12.739Z,10.90
2022-08-02T02:55:42.203Z,12.35
2022-08-02T02:58:31.568Z,11.93
2022-08-02T03:01:19.570Z,14.57
2022-08-02T03:03:48.406Z,11.35
2022-08-02T03:06:17.259Z,11.00
2022-08-02T03:08:45.976Z,11.68
2022-08-02T03:11:16.169Z,10.75
2022-08-02T03:13:45.062Z,13.52
2022-08-02T03:16:15.150Z,11.93
2022-08-02T03:18:45.293Z,11.35
2022-08-02T03:21:14.988Z,14.65
2022-08-02T03:23:44.524Z,16.98
2022-08-02T03:26:13.751Z,13.07
2022-08-02T03:28:43.078Z,11.55
2022-08-02T03:31:12.799Z,10.80
2022-08-02T03:33:43.196Z,12.27
2022-08-02T03:38:41.928Z,10.32
2022-08-02T03:41:11.773Z,9.03
2022-08-02T03:43:41.240Z,16.08
2022-08-02T03:46:10.981Z,10.77
2022-08-02T03:48:40.081Z,10.35
2022-08-02T03:51:10.488Z,19.33
2022-08-02T03:53:39.890Z,10.20
2022-08-02T03:56:08.918Z,12.07
2022-08-02T03:58:37.405Z,14.43
2022-08-02T04:01:06.314Z,11.43
2022-08-02T04:03:35.270Z,13.63
2022-08-02T04:06:05.009Z,10.90
2022-08-02T04:08:38.285Z,12.80
2022-08-02T04:11:25.396Z,23.77
2022-08-02T04:13:56.747Z,16.08
2022-08-02T04:16:31.177Z,15.15
2022-08-02T04:19:02.441Z,9.85
2022-08-02T04:21:41.382Z,13.20
2022-08-02T04:24:24.403Z,20.52
2022-08-02T04:26:54.882Z,14.50
2022-08-02T04:29:27.758Z,13.18
2022-08-02T04:31:56.095Z,11.60
2022-08-02T04:34:25.048Z,10.02
2022-08-02T04:36:53.900Z,11.32
2022-08-02T04:39:23.996Z,18.30
2022-08-02T04:41:57.440Z,11.77
2022-08-02T04:44:26.957Z,11.23
2022-08-02T04:46:56.065Z,8.57
2022-08-02T04:49:24.870Z,15.40
2022-08-02T04:51:53.645Z,10.07
2022-08-02T04:54:25.909Z,13.27
2022-08-02T04:56:54.754Z,15.10
2022-08-02T04:59:23.571Z,19.13
2022-08-02T05:01:51.883Z,13.80
2022-08-02T05:04:20.668Z,20.10
2022-08-02T05:06:49.303Z,17.95
2022-08-02T05:09:18.002Z,12.35
2022-08-02T05:11:53.356Z,10.77
2022-08-02T05:14:24.387Z,13.85
2022-08-02T05:16:52.704Z,21.83
2022-08-02T05:19:21.450Z,13.57
2022-08-02T05:21:50.208Z,11.32
2022-08-02T05:24:18.987Z,9.25
2022-08-02T05:26:49.113Z,9.52
2022-08-02T05:29:17.947Z,8.15
2022-08-02T05:31:47.238Z,9.73
2022-08-02T05:34:16.058Z,11.02
2022-08-02T05:36:45.048Z,6.63
2022-08-02T05:39:19.042Z,10.57
2022-08-02T05:41:49.466Z,5.70
2022-08-02T05:44:18.397Z,13.48
2022-08-02T05:46:46.927Z,11.88
2022-08-02T05:49:16.709Z,12.38
2022-08-02T05:51:53.365Z,8.50
2022-08-02T05:54:24.978Z,11.75
2022-08-02T05:56:58.284Z,7.72
2022-08-02T05:59:33.430Z,5.95
2022-08-02T06:02:05.850Z,7.80
2022-08-02T06:04:39.293Z,6.53
2022-08-02T06:07:10.748Z,7.20
2022-08-02T06:09:41.468Z,11.38
2022-08-02T06:12:13.605Z,9.27
2022-08-02T06:14:43.316Z,5.30
2022-08-02T06:17:12.618Z,8.00
2022-08-02T06:19:51.532Z,7.88
2022-08-02T06:22:35.816Z,8.20
2022-08-02T06:25:06.449Z,8.55
2022-08-02T06:27:42.649Z,9.95
2022-08-02T06:30:12.164Z,10.95
2022-08-02T06:32:41.219Z,5.32
2022-08-02T06:35:10.405Z,5.85
2022-08-02T06:37:45.685Z,4.70
2022-08-02T06:40:20.374Z,6.53
2022-08-02T06:42:54.047Z,4.97
2022-08-02T06:45:22.926Z,7.05
2022-08-02T06:47:51.624Z,4.93
2022-08-02T06:50:20.387Z,10.43
2022-08-02T06:52:48.695Z,9.20
2022-08-02T06:55:17.718Z,7.65
2022-08-02T06:57:46.370Z,4.55
2022-08-02T07:00:17.057Z,6.50
2022-08-02T07:02:46.570Z,3.05
2022-08-02T07:05:15.779Z,4.60
2022-08-02T07:07:44.310Z,4.47
2022-08-02T07:10:13.574Z,5.20
2022-08-02T07:12:42.318Z,3.37
2022-08-02T07:15:12.691Z,4.03
2022-08-02T07:17:43.155Z,3.83
2022-08-02T07:20:13.614Z,4.43
2022-08-02T07:22:42.228Z,8.45
2022-08-02T07:25:11.426Z,9.77
2022-08-02T07:27:40.368Z,8.67
2022-08-02T07:30:10.235Z,4.10
2022-08-02T07:32:39.380Z,8.60
2022-08-02T07:35:10.505Z,12.00
2022-08-02T07:37:54.859Z,3.42
2022-08-02T07:40:25.818Z,3.20
2022-08-02T07:43:02.363Z,11.20
2022-08-02T07:45:32.677Z,5.85
2022-08-02T07:48:01.883Z,12.23
2022-08-02T07:50:32.126Z,6.32
2022-08-02T07:53:01.028Z,4.75
2022-08-02T07:55:39.086Z,3.75
2022-08-02T07:58:11.226Z,2.78
2022-08-02T08:00:43.283Z,9.32
2022-08-02T08:03:12.001Z,5.20
2022-08-02T08:05:42.265Z,5.35
2022-08-02T08:08:16.920Z,6.53
2022-08-02T08:10:46.493Z,10.50
2022-08-02T08:13:15.600Z,13.02
2022-08-02T08:15:51.786Z,10.32
2022-08-02T08:18:22.179Z,3.88
2022-08-02T08:20:52.496Z,6.13
2022-08-02T08:23:21.184Z,5.28
2022-08-02T08:25:49.681Z,5.55
2022-08-02T08:28:18.420Z,3.55
2022-08-02T08:30:47.699Z,7.78
2022-08-02T08:33:16.588Z,3.75
2022-08-02T08:35:45.318Z,3.60
2022-08-02T08:38:16.158Z,6.72
2022-08-02T08:40:44.954Z,5.07
2022-08-02T08:43:15.012Z,4.00
2022-08-02T08:45:45.311Z,3.25
2022-08-02T08:48:30.765Z,10.80
2022-08-02T08:51:03.579Z,3.60
2022-08-02T08:53:36.430Z,4.05
2022-08-02T08:56:06.303Z,5.25
2022-08-02T08:58:34.761Z,4.70
2022-08-02T09:01:03.701Z,8.05
2022-08-02T09:03:33.982Z,3.45
2022-08-02T09:06:05.019Z,6.40
2022-08-02T09:08:35.298Z,6.75
2022-08-02T09:11:13.891Z,3.58
2022-08-02T09:13:50.815Z,6.47
2022-08-02T09:16:29.502Z,4.57
2022-08-02T09:18:58.893Z,5.30
2022-08-02T09:32:46.699Z,8.73
2022-08-02T09:35:18.608Z,7.50
2022-08-02T09:37:49.357Z,6.80
2022-08-02T09:40:37.364Z,5.25
2022-08-02T09:43:09.938Z,4.80
2022-08-02T09:45:40.917Z,3.78
2022-08-02T09:48:12.643Z,3.88
2022-08-02T09:50:42.850Z,5.53
2022-08-02T09:53:15.094Z,9.63
2022-08-02T09:55:44.584Z,6.22
2022-08-02T10:00:57.359Z,8.45
2022-08-02T10:03:34.884Z,10.32
2022-08-02T10:06:04.544Z,5.07
2022-08-02T10:08:34.130Z,9.32
2022-08-02T10:11:03.879Z,3.55
2022-08-02T10:13:33.782Z,5.22
2022-08-02T10:16:04.941Z,3.15
2022-08-02T10:18:39.232Z,3.53
2022-08-02T10:21:09.506Z,8.27
2022-08-02T10:23:41.198Z,7.20
2022-08-02T10:26:10.498Z,7.85
2022-08-02T10:28:39.120Z,5.47
2022-08-02T10:31:09.681Z,8.88
2022-08-02T10:33:39.893Z,7.40
2022-08-02T10:36:10.184Z,6.65
2022-08-02T10:38:39.004Z,7.65
2022-08-02T10:41:08.224Z,3.17
2022-08-02T10:43:49.480Z,5.03
2022-08-02T10:46:31.489Z,6.35
2022-08-02T10:49:36.133Z,3.95
2022-08-02T10:52:20.328Z,2.33
2022-08-02T10:54:57.151Z,3.65
2022-08-02T10:57:27.567Z,3.40
2022-08-02T10:59:58.437Z,7.68
2022-08-02T11:02:40.747Z,3.53
2022-08-02T11:05:11.598Z,7.47
2022-08-02T11:07:42.146Z,2.50
2022-08-02T11:10:36.857Z,4.28
2022-08-02T11:13:08.359Z,2.60
2022-08-02T11:15:51.321Z,3.63
2022-08-02T11:18:22.913Z,8.93
2022-08-02T11:21:22.310Z,4.03
2022-08-02T11:23:51.006Z,5.35
2022-08-02T11:26:45.566Z,5.13
2022-08-02T11:29:15.902Z,4.10
2022-08-02T11:31:46.380Z,2.83
2022-08-02T11:34:36.813Z,9.02
2022-08-02T11:37:06.749Z,6.35
2022-08-02T11:39:35.382Z,4.65
2022-08-02T11:42:04.092Z,9.27
2022-08-02T11:44:42.524Z,6.72
2022-08-02T11:47:11.269Z,5.63
2022-08-02T11:49:41.199Z,5.22
2022-08-02T11:52:11.453Z,4.63
2022-08-02T11:54:42.277Z,4.32
2022-08-02T11:57:19.868Z,5.80
2022-08-02T11:59:51.087Z,5.32
2022-08-02T12:02:20.751Z,3.53
2022-08-02T12:04:58.858Z,13.32
2022-08-02T12:07:34.610Z,5.25
2022-08-02T12:10:08.142Z,6.20
2022-08-02T12:12:48.983Z,5.18
2022-08-02T12:15:23.791Z,3.03
2022-08-02T12:18:10.313Z,4.53
2022-08-02T12:20:40.539Z,6.80
2022-08-02T12:23:10.673Z,7.45
2022-08-02T12:28:18.423Z,5.65
2022-08-02T12:33:19.496Z,3.58
2022-08-02T12:35:50.081Z,7.20
2022-08-02T12:38:18.867Z,4.68
2022-08-02T12:40:47.987Z,4.38
2022-08-02T12:43:22.256Z,3.97
2022-08-02T12:45:53.191Z,5.93
2022-08-02T12:48:38.369Z,7.22
2022-08-02T12:51:23.489Z,6.15
2022-08-02T12:53:59.948Z,4.88
2022-08-02T12:56:30.984Z,2.30
2022-08-02T12:59:00.087Z,5.72
2022-08-02T13:01:29.916Z,6.13
2022-08-02T13:04:11.466Z,2.70
2022-08-02T13:06:45.064Z,10.10
2022-08-02T13:09:17.116Z,5.65
2022-08-02T13:11:46.407Z,2.65
2022-08-02T13:14:15.420Z,3.83
2022-08-02T13:16:45.275Z,4.57
2022-08-02T13:19:15.561Z,2.28
2022-08-02T13:22:11.314Z,7.70
2022-08-02T13:24:40.095Z,3.88
2022-08-02T13:27:25.326Z,5.68
2022-08-02T13:29:55.323Z,8.13
2022-08-02T13:32:25.198Z,8.88
2022-08-02T13:34:53.832Z,4.10
2022-08-02T13:37:24.036Z,10.27
2022-08-02T13:40:12.218Z,6.53
2022-08-02T13:42:41.540Z,3.97
2022-08-02T13:45:12.609Z,5.43
2022-08-02T13:47:57.630Z,10.57
2022-08-02T13:50:32.385Z,6.38
2022-08-02T13:53:02.449Z,4.73
2022-08-02T13:55:31.112Z,6.57
2022-08-02T13:57:59.840Z,10.25
2022-08-02T14:00:35.142Z,4.93
2022-08-02T14:03:08.595Z,4.60
2022-08-02T14:05:48.451Z,3.60
2022-08-02T14:08:20.396Z,2.63
2022-08-02T14:10:49.176Z,4.15
2022-08-02T14:13:17.967Z,5.10
2022-08-02T14:15:47.420Z,4.82
2022-08-02T14:18:16.286Z,7.53
2022-08-02T14:20:45.592Z,5.65
2022-08-02T14:25:44.307Z,12.27
2022-08-02T14:28:13.108Z,2.03
2022-08-02T14:30:41.983Z,8.32
2022-08-02T14:33:10.789Z,4.18
2022-08-02T14:35:39.546Z,4.85
2022-08-02T14:38:08.404Z,3.38
2022-08-02T14:40:36.834Z,4.15
2022-08-02T14:43:08.305Z,3.83
2022-08-02T14:45:40.713Z,7.75
2022-08-02T14:48:13.240Z,3.75
2022-08-02T14:50:41.993Z,6.88
2022-08-02T14:53:12.091Z,5.20
2022-08-02T14:55:42.944Z,5.85
2022-08-02T14:58:13.619Z,6.50
2022-08-02T15:00:43.826Z,6.65
2022-08-02T15:03:13.127Z,3.70
2022-08-02T15:05:41.890Z,5.20
2022-08-02T15:08:10.726Z,7.65
2022-08-02T15:10:39.072Z,5.18
2022-08-02T15:13:07.802Z,6.93
2022-08-02T15:15:43.134Z,2.75
2022-08-02T15:18:13.795Z,8.18
2022-08-02T15:20:46.234Z,7.00
2022-08-02T15:23:37.334Z,7.65
2022-08-02T15:26:06.369Z,1.65
2022-08-02T15:28:35.432Z,3.70
2022-08-02T15:31:05.791Z,8.88
2022-08-02T15:33:34.582Z,3.42
2022-08-02T15:36:06.769Z,2.53
2022-08-02T15:38:36.217Z,5.70
2022-08-02T15:41:05.553Z,4.20
2022-08-02T15:43:59.829Z,5.10
2022-08-02T15:46:30.604Z,3.00
2022-08-02T15:49:00.086Z,4.90
2022-08-02T15:51:28.905Z,5.00
2022-08-02T15:53:57.745Z,6.80
2022-08-02T15:56:26.639Z,4.37
2022-08-02T15:58:56.090Z,5.78
2022-08-02T16:01:37.642Z,13.05
2022-08-02T16:04:08.371Z,5.07
2022-08-02T16:06:37.898Z,8.77
2022-08-02T16:09:07.424Z,7.70
2022-08-02T16:11:36.206Z,2.83
2022-08-02T16:14:05.183Z,11.43
2022-08-02T16:16:36.315Z,8.05
2022-08-02T16:19:47.400Z,4.85
2022-08-02T16:21:56.334Z,4.10
2022-08-02T16:24:26.315Z,2.38
2022-08-02T16:26:55.063Z,4.80
2022-08-02T16:29:23.780Z,2.87
2022-08-02T16:31:53.636Z,7.78
2022-08-02T16:34:22.354Z,6.40
2022-08-02T16:36:51.112Z,6.22
2022-08-02T16:39:19.734Z,8.60
2022-08-02T16:41:52.092Z,2.93
2022-08-02T16:44:29.288Z,5.20
2022-08-02T16:47:01.718Z,4.60
2022-08-02T16:50:06.909Z,6.30
2022-08-02T16:52:20.136Z,9.35
2022-08-02T16:54:49.751Z,5.75
2022-08-02T16:57:19.837Z,6.90
2022-08-02T16:59:57.499Z,7.35
2022-08-02T17:02:28.794Z,5.30
2022-08-02T17:04:57.157Z,7.90
2022-08-02T17:08:15.681Z,6.07
2022-08-02T17:10:19.033Z,2.40
2022-08-02T17:12:51.423Z,4.82
2022-08-02T17:16:07.774Z,3.17
2022-08-02T17:18:10.937Z,2.80
2022-08-02T17:20:39.754Z,2.85
2022-08-02T17:23:08.973Z,7.60
2022-08-02T17:25:45.087Z,2.38
2022-08-02T17:28:21.610Z,5.88
2022-08-02T17:31:00.848Z,4.85
2022-08-02T17:33:30.905Z,3.33
2022-08-02T17:36:01.008Z,6.53
2022-08-02T17:38:31.387Z,9.52
2022-08-02T17:41:00.861Z,5.90
2022-08-02T17:43:32.777Z,11.30
2022-08-02T17:46:02.625Z,13.00
2022-08-02T17:48:55.031Z,10.02
2022-08-02T17:51:32.986Z,5.10
2022-08-02T17:54:13.806Z,4.35
2022-08-02T17:56:42.995Z,11.45
2022-08-02T17:59:20.941Z,5.63
2022-08-02T18:01:53.067Z,10.18
2022-08-02T18:04:27.673Z,4.38
2022-08-02T18:06:59.033Z,9.15
2022-08-02T18:09:33.209Z,8.20
2022-08-02T18:12:03.565Z,5.03
2022-08-02T18:14:32.254Z,7.50
2022-08-02T18:17:03.427Z,7.55
2022-08-02T18:19:42.308Z,4.68
2022-08-02T18:22:24.975Z,9.15
2022-08-02T18:24:55.458Z,6.85
2022-08-02T18:27:24.208Z,7.97
2022-08-02T18:30:03.980Z,9.02
2022-08-02T18:33:53.965Z,14.73
2022-08-02T18:35:24.744Z,8.90
2022-08-02T18:38:03.404Z,6.95
2022-08-02T18:40:32.771Z,7.25
2022-08-02T18:43:03.434Z,10.85
2022-08-02T18:46:04.571Z,9.82
2022-08-02T18:48:21.355Z,8.68
2022-08-02T18:50:52.386Z,10.65
2022-08-02T18:53:39.174Z,7.22
2022-08-02T18:56:20.013Z,5.53
2022-08-02T18:58:54.433Z,9.90
2022-08-02T19:01:50.797Z,19.83
2022-08-02T19:04:27.687Z,11.50
2022-08-02T19:07:07.422Z,6.75
2022-08-02T19:09:40.141Z,8.98
2022-08-02T19:12:11.745Z,6.85
2022-08-02T19:14:41.266Z,8.00
2022-08-02T19:17:15.933Z,6.93
2022-08-02T19:19:58.672Z,8.45
2022-08-02T19:22:29.113Z,10.02
2022-08-02T19:25:01.030Z,6.20
2022-08-02T19:27:32.228Z,7.78
2022-08-02T19:30:03.198Z,9.27
2022-08-02T19:32:41.391Z,12.52
2022-08-02T19:35:29.643Z,14.00
2022-08-02T19:38:12.797Z,10.07
2022-08-02T19:40:43.049Z,16.85
2022-08-02T19:46:00.734Z,8.55
2022-08-02T19:48:30.064Z,15.68
2022-08-02T19:51:01.322Z,11.07
2022-08-02T19:53:47.757Z,9.90
2022-08-02T19:56:25.200Z,8.00
2022-08-02T19:58:55.071Z,13.38
2022-08-02T20:01:36.620Z,13.20
2022-08-02T20:04:13.446Z,14.85
2022-08-02T20:06:45.903Z,13.60
2022-08-02T20:09:21.152Z,15.60
2022-08-02T20:11:54.459Z,14.10
2022-08-02T20:17:13.246Z,10.00
2022-08-02T20:19:42.767Z,10.80
2022-08-02T20:22:16.150Z,12.23
2022-08-02T20:24:46.936Z,17.00
2022-08-02T20:27:19.375Z,14.05
2022-08-02T20:29:52.543Z,13.25
2022-08-02T20:32:24.186Z,10.52
2022-08-02T20:34:53.194Z,10.82
2022-08-02T20:38:00.089Z,10.45
2022-08-02T20:40:16.601Z,13.38
2022-08-02T20:42:47.631Z,8.90
2022-08-02T20:45:17.364Z,10.18
2022-08-02T20:47:50.963Z,11.87
2022-08-02T20:50:39.125Z,14.20
2022-08-02T20:53:08.520Z,12.75
2022-08-02T20:55:55.667Z,11.88
2022-08-02T20:58:26.467Z,16.55
2022-08-02T21:00:59.522Z,11.93
2022-08-02T21:03:39.176Z,15.07
2022-08-02T21:08:38.478Z,16.10
2022-08-02T21:11:12.703Z,13.50
2022-08-02T21:13:46.754Z,17.13
2022-08-02T21:16:31.673Z,11.85
2022-08-02T21:19:00.652Z,18.23
2022-08-02T21:21:29.994Z,13.60
2022-08-02T21:23:59.957Z,12.17
2022-08-02T21:26:32.221Z,13.80
2022-08-02T21:29:03.637Z,14.60
2022-08-02T21:31:35.582Z,11.20
2022-08-02T21:34:07.545Z,14.32
2022-08-02T21:36:50.929Z,15.98
2022-08-02T21:39:20.590Z,17.83
2022-08-02T21:41:51.206Z,17.02
2022-08-02T21:44:22.240Z,19.52
2022-08-02T21:46:52.010Z,13.20
2022-08-02T21:49:40.544Z,19.85
2022-08-02T21:52:10.245Z,15.88
2022-08-02T21:54:39.816Z,15.73
2022-08-02T21:59:46.182Z,17.52
2022-08-02T22:02:15.543Z,16.02
2022-08-02T22:04:47.977Z,16.42
2022-08-02T22:07:24.047Z,19.38
2022-08-02T22:09:53.947Z,13.32
2022-08-02T22:12:27.134Z,15.43
2022-08-02T22:14:56.533Z,22.20
2022-08-02T22:17:51.271Z,18.13
2022-08-02T22:23:04.991Z,14.05
2022-08-02T22:25:41.870Z,18.77
2022-08-02T22:28:37.093Z,15.95
2022-08-02T22:31:05.568Z,15.38
2022-08-02T22:36:30.749Z,15.57
2022-08-02T22:39:00.041Z,19.30
2022-08-02T22:42:01.800Z,18.13
2022-08-02T22:44:20.276Z,20.98
2022-08-02T22:46:50.024Z,16.25
2022-08-02T22:49:38.410Z,19.92
2022-08-02T22:52:08.541Z,16.83
2022-08-02T22:54:39.608Z,15.75
2022-08-02T22:57:11.100Z,15.73
2022-08-02T22:58:54.954Z,7.97
2022-08-02T22:59:41.916Z,18.77
2022-08-02T23:04:39.473Z,20.58
2022-08-02T23:07:08.159Z,17.90
2022-08-02T23:09:36.847Z,18.55
2022-08-02T23:12:06.218Z,16.70
2022-08-02T23:14:34.897Z,17.75
2022-08-02T23:17:22.565Z,18.35
2022-08-02T23:19:53.520Z,15.18
2022-08-02T23:22:30.101Z,17.15
2022-08-02T23:25:01.928Z,16.90
2022-08-02T23:27:30.950Z,17.17
2022-08-02T23:29:59.737Z,18.75
2022-08-02T23:32:30.459Z,16.70
2022-08-02T23:37:28.410Z,17.38
2022-08-02T23:40:39.456Z,21.85
2022-08-02T23:43:13.372Z,18.98
2022-08-02T23:45:45.318Z,17.45
2022-08-02T23:48:15.442Z,18.23
2022-08-02T23:50:44.151Z,16.08
2022-08-02T23:53:12.835Z,16.50
2022-08-02T23:55:41.257Z,18.98
2022-08-02T23:58:09.945Z,16.73
